Time;durP1;ratioP1;P1;durP2;ratioP2;P2;SDS_P1;SDS_P2;PMS_P1;PMS_P2;Temp;Humidity;BMP_temperature;BMP_pressure;BME280_temperature;BME280_humidity;BME280_pressure;Samples;Min_cycle;Max_cycle;Signal;HPM_P1;HPM_P2
2021/03/09 00:01:39;;;;;;;16.43;10.43;;;;;;;;;;5016331;28;20413;-91
2021/03/09 00:04:05;;;;;;;17.37;10.20;;;;;;;;;;5017089;28;20509;-91
2021/03/09 00:06:55;;;;;;;15.80;10.98;;;;;;;;;;5032466;28;20906;-91
2021/03/09 00:09:25;;;;;;;13.50;10.30;;;;;;;;;;4991879;28;20498;-91
2021/03/09 00:11:51;;;;;;;13.48;9.38;;;;;;;;;;5016163;28;20414;-92
2021/03/09 00:14:17;;;;;;;13.52;10.52;;;;;;;;;;5005768;28;20786;-91
2021/03/09 00:16:43;;;;;;;14.98;10.60;;;;;;;;;;4999638;28;20731;-91
2021/03/09 00:19:14;;;;;;;13.90;10.70;;;;;;;;;;5003160;28;20508;-91
2021/03/09 00:21:43;;;;;;;13.40;10.43;;;;;;;;;;4999995;28;20415;-92
2021/03/09 00:24:11;;;;;;;12.23;9.87;;;;;;;;;;5011146;28;20489;-91
2021/03/09 00:26:37;;;;;;;12.77;10.50;;;;;;;;;;4999631;28;20929;-91
2021/03/09 00:29:06;;;;;;;12.93;10.48;;;;;;;;;;5015270;28;20407;-91
2021/03/09 00:32:02;;;;;;;14.43;10.32;;;;;;;;;;5032105;28;20427;-91
2021/03/09 00:34:28;;;;;;;13.60;10.80;;;;;;;;;;4930101;28;20439;-91
2021/03/09 00:37:14;;;;;;;14.07;10.63;;;;;;;;;;5015800;28;20387;-91
2021/03/09 00:39:40;;;;;;;15.15;10.38;;;;;;;;;;5016154;28;20406;-91
2021/03/09 00:42:06;;;;;;;16.77;10.77;;;;;;;;;;4999067;28;20395;-92
2021/03/09 00:47:35;;;;;;;15.43;10.82;;;;;;;;;;5006909;28;20453;-91
2021/03/09 00:50:19;;;;;;;16.98;10.93;;;;;;;;;;5015601;28;20407;-91
2021/03/09 00:52:51;;;;;;;17.92;10.82;;;;;;;;;;5008447;28;20921;-91
2021/03/09 00:55:33;;;;;;;12.77;10.43;;;;;;;;;;5018299;28;20920;-91
2021/03/09 00:58:04;;;;;;;14.65;10.93;;;;;;;;;;5000377;28;20420;-91
2021/03/09 01:00:30;;;;;;;14.68;10.32;;;;;;;;;;5001271;28;20399;-91
2021/03/09 01:03:02;;;;;;;14.13;10.60;;;;;;;;;;4999838;28;20454;-91
2021/03/09 01:05:33;;;;;;;17.73;11.43;;;;;;;;;;4999132;28;20770;-91
2021/03/09 01:08:05;;;;;;;16.10;10.90;;;;;;;;;;5015139;28;20403;-92
2021/03/09 01:10:34;;;;;;;15.90;11.02;;;;;;;;;;4998834;28;20449;-92
2021/03/09 01:13:05;;;;;;;19.17;10.90;;;;;;;;;;5015029;28;20419;-91
2021/03/09 01:15:34;;;;;;;15.50;10.73;;;;;;;;;;5001385;28;20395;-91
2021/03/09 01:18:00;;;;;;;13.43;11.18;;;;;;;;;;4997370;28;20907;-91
2021/03/09 01:20:30;;;;;;;14.10;10.85;;;;;;;;;;4988775;28;20409;-91
2021/03/09 01:22:58;;;;;;;12.98;9.98;;;;;;;;;;5031991;28;20986;-91
2021/03/09 01:25:24;;;;;;;13.43;10.53;;;;;;;;;;5004946;28;20403;-91
2021/03/09 01:27:56;;;;;;;14.23;10.65;;;;;;;;;;5030632;28;20417;-90
2021/03/09 01:30:51;;;;;;;15.68;11.43;;;;;;;;;;5015148;28;20897;-91
2021/03/09 01:33:43;;;;;;;15.98;11.02;;;;;;;;;;5000783;28;20955;-91
2021/03/09 01:36:15;;;;;;;14.80;10.50;;;;;;;;;;4991031;28;20751;-91
2021/03/09 01:38:43;;;;;;;15.15;10.93;;;;;;;;;;5015757;28;20418;-91
2021/03/09 01:44:38;;;;;;;14.23;10.27;;;;;;;;;;4993732;28;20456;-90
2021/03/09 01:47:09;;;;;;;15.10;11.40;;;;;;;;;;5014276;28;20809;-91
2021/03/09 01:49:41;;;;;;;15.77;11.20;;;;;;;;;;5015015;28;20403;-91
2021/03/09 01:52:18;;;;;;;;;;;;;;;;;;;;;
2021/03/09 01:55:05;;;;;;;15.80;11.63;;;;;;;;;;5018052;28;20411;-91
2021/03/09 01:57:31;;;;;;;19.52;12.25;;;;;;;;;;5017900;28;20414;-90
2021/03/09 01:59:57;;;;;;;16.63;12.23;;;;;;;;;;5014394;28;20402;-91
2021/03/09 02:02:43;;;;;;;15.85;11.93;;;;;;;;;;5009284;28;20411;-91
2021/03/09 02:05:09;;;;;;;14.83;12.27;;;;;;;;;;5031948;28;20442;-91
2021/03/09 02:07:38;;;;;;;17.10;12.52;;;;;;;;;;4999058;28;20410;-91
2021/03/09 02:10:21;;;;;;;18.65;13.07;;;;;;;;;;5006307;28;20894;-91
2021/03/09 02:13:14;;;;;;;16.70;12.02;;;;;;;;;;4997977;28;20975;-90
2021/03/09 02:16:06;;;;;;;20.38;12.80;;;;;;;;;;4977083;28;20458;-91
2021/03/09 02:18:50;;;;;;;15.77;12.55;;;;;;;;;;5015381;28;20427;-90
2021/03/09 02:21:25;;;;;;;16.55;12.20;;;;;;;;;;5026720;28;20874;-91
2021/03/09 02:24:00;;;;;;;19.65;13.55;;;;;;;;;;5027622;28;20442;-90
2021/03/09 02:26:35;;;;;;;17.60;12.73;;;;;;;;;;5014149;28;20542;-90
2021/03/09 02:29:17;;;;;;;19.33;12.27;;;;;;;;;;5013381;28;20409;-91
2021/03/09 02:31:46;;;;;;;19.13;13.30;;;;;;;;;;5013729;28;20415;-90
2021/03/09 02:34:33;;;;;;;18.27;12.68;;;;;;;;;;5002824;28;20454;-90
2021/03/09 02:37:12;;;;;;;18.25;13.35;;;;;;;;;;5030566;28;20453;-91
2021/03/09 02:40:07;;;;;;;19.80;13.73;;;;;;;;;;5011860;28;20415;-91
2021/03/09 02:42:38;;;;;;;17.55;13.18;;;;;;;;;;5007575;28;20395;-91
2021/03/09 02:45:07;;;;;;;19.93;13.43;;;;;;;;;;4997219;28;20447;-90
2021/03/09 02:47:33;;;;;;;18.63;12.75;;;;;;;;;;5022148;28;20451;-91
2021/03/09 02:50:04;;;;;;;18.73;13.80;;;;;;;;;;5012115;28;20901;-90
2021/03/09 02:52:33;;;;;;;20.25;13.23;;;;;;;;;;5020126;28;21876;-90
2021/03/09 02:58:11;;;;;;;21.35;13.48;;;;;;;;;;5006193;28;20399;-91
2021/03/09 03:00:37;;;;;;;18.88;13.98;;;;;;;;;;5001139;28;20433;-90
2021/03/09 03:03:09;;;;;;;19.70;12.52;;;;;;;;;;5019855;28;20914;-91
2021/03/09 03:05:40;;;;;;;19.25;13.95;;;;;;;;;;5017989;28;20444;-90
2021/03/09 03:08:09;;;;;;;17.10;13.37;;;;;;;;;;5001250;28;20849;-90
2021/03/09 03:10:38;;;;;;;18.25;12.85;;;;;;;;;;5034648;28;20403;-91
2021/03/09 03:13:10;;;;;;;19.80;13.60;;;;;;;;;;5002838;28;20506;-91
2021/03/09 03:15:38;;;;;;;19.02;14.07;;;;;;;;;;5001157;28;20409;-91
2021/03/09 03:18:10;;;;;;;19.25;13.40;;;;;;;;;;5031713;28;20411;-90
2021/03/09 03:20:42;;;;;;;20.60;13.52;;;;;;;;;;5017862;28;20399;-91
2021/03/09 03:23:11;;;;;;;19.95;14.00;;;;;;;;;;5014205;28;20403;-90
2021/03/09 03:25:37;;;;;;;19.45;14.23;;;;;;;;;;5017155;28;20413;-91
2021/03/09 03:28:23;;;;;;;19.33;13.70;;;;;;;;;;5016654;28;20468;-91
2021/03/09 03:30:52;;;;;;;19.83;13.98;;;;;;;;;;5017182;28;20773;-90
2021/03/09 03:33:23;;;;;;;19.17;14.45;;;;;;;;;;4999706;28;20423;-90
2021/03/09 03:35:54;;;;;;;23.67;14.70;;;;;;;;;;5016850;28;20399;-90
2021/03/09 03:38:24;;;;;;;21.30;14.65;;;;;;;;;;5005842;28;20426;-90
2021/03/09 03:40:55;;;;;;;20.97;15.03;;;;;;;;;;5001590;28;20402;-90
2021/03/09 03:43:21;;;;;;;22.52;14.82;;;;;;;;;;5000272;28;20903;-90
2021/03/09 03:45:47;;;;;;;22.00;14.60;;;;;;;;;;5019607;28;20490;-91
2021/03/09 03:48:12;;;;;;;21.85;15.30;;;;;;;;;;5007014;28;20399;-90
2021/03/09 03:50:41;;;;;;;22.33;15.63;;;;;;;;;;4997674;28;20417;-90
2021/03/09 03:53:13;;;;;;;19.48;14.63;;;;;;;;;;5005147;28;20953;-91
2021/03/09 03:55:45;;;;;;;22.45;14.38;;;;;;;;;;5019476;28;20399;-91
2021/03/09 03:58:16;;;;;;;20.97;15.27;;;;;;;;;;5016751;28;20398;-91
2021/03/09 04:00:42;;;;;;;19.67;14.98;;;;;;;;;;4996352;28;20507;-91
2021/03/09 04:03:09;;;;;;;21.83;15.68;;;;;;;;;;5015456;28;20486;-90
2021/03/09 04:05:36;;;;;;;23.73;16.10;;;;;;;;;;5028316;28;20403;-91
2021/03/09 04:08:02;;;;;;;19.60;15.53;;;;;;;;;;5016293;28;20441;-91
2021/03/09 04:10:28;;;;;;;24.35;16.60;;;;;;;;;;4999828;28;20434;-91
2021/03/09 04:12:54;;;;;;;23.58;15.32;;;;;;;;;;5002574;28;20431;-91
2021/03/09 04:15:20;;;;;;;24.35;15.50;;;;;;;;;;5013198;28;20415;-90
2021/03/09 04:17:46;;;;;;;23.05;15.40;;;;;;;;;;5015969;28;20418;-91
2021/03/09 04:20:12;;;;;;;25.00;14.90;;;;;;;;;;4999221;28;20917;-91
2021/03/09 04:22:38;;;;;;;22.92;15.77;;;;;;;;;;4998235;28;20416;-91
2021/03/09 04:25:04;;;;;;;25.45;16.50;;;;;;;;;;5015067;28;20878;-91
2021/03/09 04:27:30;;;;;;;23.52;15.93;;;;;;;;;;5012784;28;20428;-91
2021/03/09 04:29:57;;;;;;;23.83;16.20;;;;;;;;;;5012372;28;20469;-90
2021/03/09 04:32:23;;;;;;;24.65;16.92;;;;;;;;;;4998221;28;20420;-90
2021/03/09 04:34:52;;;;;;;22.60;15.77;;;;;;;;;;4999551;28;20434;-90
2021/03/09 04:37:20;;;;;;;23.92;16.50;;;;;;;;;;5001470;28;20444;-89
2021/03/09 04:39:46;;;;;;;23.30;15.55;;;;;;;;;;5015970;28;20498;-90
2021/03/09 04:42:12;;;;;;;28.42;17.48;;;;;;;;;;4999111;28;20829;-91
2021/03/09 04:44:38;;;;;;;27.73;17.20;;;;;;;;;;5016665;28;20418;-91
2021/03/09 04:47:04;;;;;;;21.50;16.23;;;;;;;;;;5015173;28;20426;-90
2021/03/09 04:49:31;;;;;;;22.33;16.20;;;;;;;;;;5015109;28;20750;-90
2021/03/09 04:51:57;;;;;;;23.88;16.73;;;;;;;;;;5017382;28;20900;-91
2021/03/09 04:54:23;;;;;;;25.20;17.25;;;;;;;;;;5015374;28;20403;-91
2021/03/09 04:56:49;;;;;;;22.58;16.15;;;;;;;;;;4999828;28;20482;-90
2021/03/09 04:59:14;;;;;;;23.33;16.67;;;;;;;;;;5014485;28;20419;-91
2021/03/09 05:01:40;;;;;;;28.17;16.08;;;;;;;;;;5015470;28;20486;-91
2021/03/09 05:04:06;;;;;;;23.58;16.88;;;;;;;;;;5014463;28;20430;-91
2021/03/09 05:06:32;;;;;;;24.27;17.13;;;;;;;;;;5032352;28;20525;-91
2021/03/09 05:08:58;;;;;;;23.98;16.52;;;;;;;;;;5015211;28;20412;-90
2021/03/09 05:11:24;;;;;;;25.23;17.23;;;;;;;;;;5014684;28;20743;-90
2021/03/09 05:13:53;;;;;;;24.73;17.35;;;;;;;;;;4998571;28;20415;-91
2021/03/09 05:16:19;;;;;;;24.75;17.55;;;;;;;;;;5015584;28;20493;-90
2021/03/09 05:18:45;;;;;;;21.77;16.03;;;;;;;;;;4998616;28;20914;-90
2021/03/09 05:21:11;;;;;;;25.05;17.80;;;;;;;;;;5032050;28;20489;-90
2021/03/09 05:23:37;;;;;;;24.42;17.00;;;;;;;;;;5014667;28;20422;-90
2021/03/09 05:26:03;;;;;;;24.27;17.00;;;;;;;;;;4992075;28;20414;-90
2021/03/09 05:28:29;;;;;;;25.05;17.10;;;;;;;;;;4998050;28;20429;-91
2021/03/09 05:30:54;;;;;;;23.83;17.00;;;;;;;;;;4994903;28;20460;-91
2021/03/09 05:33:20;;;;;;;25.27;17.27;;;;;;;;;;5029784;28;20426;-90
2021/03/09 05:35:46;;;;;;;24.55;17.90;;;;;;;;;;5014333;28;20743;-90
2021/03/09 05:38:12;;;;;;;25.00;17.15;;;;;;;;;;5013629;28;20759;-90
2021/03/09 05:40:38;;;;;;;22.63;16.83;;;;;;;;;;5013452;28;20879;-91
2021/03/09 05:43:05;;;;;;;23.42;16.65;;;;;;;;;;4997780;28;20395;-92
2021/03/09 05:45:30;;;;;;;25.13;17.50;;;;;;;;;;5014397;28;20491;-91
2021/03/09 05:47:57;;;;;;;26.30;18.67;;;;;;;;;;5013483;28;20490;-90
2021/03/09 05:50:23;;;;;;;26.25;17.45;;;;;;;;;;5012415;28;20408;-89
2021/03/09 05:52:49;;;;;;;27.65;18.02;;;;;;;;;;4994516;28;20477;-91
2021/03/09 05:55:18;;;;;;;27.02;19.27;;;;;;;;;;4979357;28;20436;-92
2021/03/09 05:57:49;;;;;;;26.83;18.92;;;;;;;;;;5011937;28;20441;-92
2021/03/09 06:00:18;;;;;;;26.52;18.92;;;;;;;;;;5014788;28;20454;-92
2021/03/09 06:02:50;;;;;;;24.92;18.90;;;;;;;;;;5001434;28;20409;-92
2021/03/09 06:05:36;;;;;;;27.63;18.43;;;;;;;;;;5013068;28;20508;-92
2021/03/09 06:08:02;;;;;;;26.88;17.92;;;;;;;;;;4997645;28;21093;-92
2021/03/09 06:10:28;;;;;;;26.23;17.83;;;;;;;;;;5009846;28;20499;-91
2021/03/09 06:12:54;;;;;;;24.85;17.90;;;;;;;;;;5006254;28;20437;-91
2021/03/09 06:15:22;;;;;;;25.55;17.77;;;;;;;;;;5012296;28;20409;-91
2021/03/09 06:18:00;;;;;;;23.60;17.63;;;;;;;;;;5017046;28;20504;-92
2021/03/09 06:20:36;;;;;;;24.85;17.33;;;;;;;;;;5015518;28;20401;-91
2021/03/09 06:23:08;;;;;;;24.37;17.67;;;;;;;;;;5014446;28;20953;-92
2021/03/09 06:25:39;;;;;;;25.33;18.03;;;;;;;;;;5001828;28;20405;-92
2021/03/09 06:28:05;;;;;;;25.52;16.88;;;;;;;;;;5018628;28;20423;-92
2021/03/09 06:30:37;;;;;;;30.13;18.88;;;;;;;;;;5019313;28;20909;-91
2021/03/09 06:33:06;;;;;;;23.87;16.83;;;;;;;;;;5016359;28;20566;-89
2021/03/09 06:35:35;;;;;;;27.10;17.55;;;;;;;;;;5021126;28;20409;-91
2021/03/09 06:38:22;;;;;;;24.40;17.17;;;;;;;;;;5039744;28;20413;-91
2021/03/09 06:41:07;;;;;;;26.10;17.77;;;;;;;;;;5033868;28;20431;-90
2021/03/09 06:43:33;;;;;;;27.13;17.00;;;;;;;;;;5011717;28;20415;-90
2021/03/09 06:46:12;;;;;;;28.77;18.13;;;;;;;;;;5015010;28;20413;-90
2021/03/09 06:48:38;;;;;;;27.10;17.98;;;;;;;;;;5017785;28;20407;-90
2021/03/09 06:51:04;;;;;;;28.60;18.88;;;;;;;;;;5002774;28;20496;-90
2021/03/09 06:53:33;;;;;;;25.38;17.90;;;;;;;;;;5012875;28;20450;-91
2021/03/09 06:55:59;;;;;;;26.60;18.35;;;;;;;;;;4993392;28;20463;-91
2021/03/09 06:58:29;;;;;;;24.55;16.67;;;;;;;;;;4989707;28;20408;-93
2021/03/09 07:00:55;;;;;;;27.23;18.37;;;;;;;;;;5027668;28;20631;-92
2021/03/09 07:03:42;;;;;;;30.60;17.85;;;;;;;;;;4997730;28;20409;-92
2021/03/09 07:06:08;;;;;;;26.77;18.92;;;;;;;;;;5015522;28;20480;-92
2021/03/09 07:08:38;;;;;;;25.95;17.92;;;;;;;;;;5017332;28;20484;-96
2021/03/09 07:11:04;;;;;;;28.45;17.95;;;;;;;;;;4998470;28;20415;-91
2021/03/09 07:13:30;;;;;;;24.65;16.85;;;;;;;;;;5005696;28;20478;-91
2021/03/09 07:15:56;;;;;;;30.17;17.77;;;;;;;;;;5007491;28;20407;-91
2021/03/09 07:18:22;;;;;;;22.27;16.67;;;;;;;;;;5015892;28;20415;-92
2021/03/09 07:20:48;;;;;;;24.40;17.92;;;;;;;;;;5019457;28;20462;-91
2021/03/09 07:23:18;;;;;;;24.90;17.48;;;;;;;;;;4999911;28;20421;-92
2021/03/09 07:25:45;;;;;;;26.30;17.83;;;;;;;;;;5017008;28;20446;-93
2021/03/09 07:28:11;;;;;;;24.60;17.38;;;;;;;;;;5018200;28;20413;-92
2021/03/09 07:30:39;;;;;;;24.15;17.48;;;;;;;;;;5004203;28;20531;-92
2021/03/09 07:33:08;;;;;;;24.92;16.80;;;;;;;;;;5000829;28;20425;-91
2021/03/09 07:35:34;;;;;;;26.85;17.58;;;;;;;;;;5002696;28;20401;-93
2021/03/09 07:38:02;;;;;;;24.13;17.20;;;;;;;;;;5023701;28;20463;-92
2021/03/09 07:40:32;;;;;;;26.30;16.55;;;;;;;;;;4998188;28;20421;-93
2021/03/09 07:42:58;;;;;;;26.20;16.75;;;;;;;;;;5001291;28;20408;-93
2021/03/09 07:45:25;;;;;;;25.10;17.07;;;;;;;;;;5020758;28;20415;-93
2021/03/09 07:47:51;;;;;;;28.80;18.15;;;;;;;;;;4995234;28;20416;-92
2021/03/09 07:50:18;;;;;;;26.23;17.42;;;;;;;;;;4995333;28;20471;-92
2021/03/09 07:52:59;;;;;;;25.52;16.33;;;;;;;;;;5019225;28;20434;-93
2021/03/09 07:55:25;;;;;;;25.70;17.80;;;;;;;;;;5037345;28;20756;-92
2021/03/09 07:58:11;;;;;;;22.63;16.90;;;;;;;;;;5022286;28;20421;-92
2021/03/09 08:00:47;;;;;;;27.63;17.53;;;;;;;;;;5018157;28;20408;-93
2021/03/09 08:03:20;;;;;;;30.75;17.92;;;;;;;;;;5008792;28;20933;-92
2021/03/09 08:06:15;;;;;;;25.15;17.27;;;;;;;;;;5000936;28;20407;-92
2021/03/09 08:08:51;;;;;;;26.05;17.65;;;;;;;;;;5014623;28;20413;-92
2021/03/09 08:11:22;;;;;;;27.20;16.40;;;;;;;;;;5001832;28;20423;-92
2021/03/09 08:13:49;;;;;;;24.90;16.25;;;;;;;;;;5015901;28;20425;-92
2021/03/09 08:16:21;;;;;;;24.00;16.55;;;;;;;;;;5019654;28;20534;-92
2021/03/09 08:19:07;;;;;;;28.20;18.15;;;;;;;;;;5032786;28;20435;-94
2021/03/09 08:21:39;;;;;;;28.55;18.80;;;;;;;;;;5032491;28;20403;-92
2021/03/09 08:24:08;;;;;;;24.25;17.27;;;;;;;;;;5024184;28;20749;-92
2021/03/09 08:26:34;;;;;;;24.15;17.52;;;;;;;;;;5005184;28;20397;-92
2021/03/09 08:29:00;;;;;;;25.53;17.10;;;;;;;;;;5021157;28;20511;-92
2021/03/09 08:31:26;;;;;;;26.88;16.90;;;;;;;;;;5016723;28;20505;-92
2021/03/09 08:34:10;;;;;;;25.65;16.00;;;;;;;;;;5013548;28;20505;-90
2021/03/09 08:36:36;;;;;;;22.30;16.48;;;;;;;;;;5028585;28;20399;-91
2021/03/09 08:39:09;;;;;;;26.63;17.02;;;;;;;;;;5016685;28;20501;-91
2021/03/09 08:41:37;;;;;;;27.63;18.90;;;;;;;;;;5020165;28;21032;-91
2021/03/09 08:44:15;;;;;;;22.17;16.30;;;;;;;;;;5013429;28;20498;-90
2021/03/09 08:46:54;;;;;;;25.20;18.55;;;;;;;;;;5037789;28;20399;-90
2021/03/09 08:49:36;;;;;;;21.55;16.88;;;;;;;;;;5012083;28;20422;-89
2021/03/09 08:52:04;;;;;;;26.65;17.52;;;;;;;;;;5026539;28;20418;-92
2021/03/09 08:54:31;;;;;;;20.02;14.85;;;;;;;;;;5003393;28;20476;-89
2021/03/09 08:56:58;;;;;;;18.90;15.25;;;;;;;;;;5021288;28;20404;-90
2021/03/09 08:59:31;;;;;;;17.48;14.30;;;;;;;;;;5005997;28;20417;-87
2021/03/09 09:02:23;;;;;;;17.75;14.48;;;;;;;;;;4997778;28;20407;-88
2021/03/09 09:04:52;;;;;;;19.23;14.03;;;;;;;;;;5013312;28;20864;-87
2021/03/09 09:07:24;;;;;;;22.52;14.15;;;;;;;;;;5037013;28;20412;-88
2021/03/09 09:09:54;;;;;;;21.00;13.60;;;;;;;;;;5030010;28;20412;-87
2021/03/09 09:12:30;;;;;;;19.53;13.77;;;;;;;;;;5007467;28;20476;-87
2021/03/09 09:14:59;;;;;;;17.58;14.40;;;;;;;;;;5012885;28;20972;-88
2021/03/09 09:17:26;;;;;;;22.67;14.98;;;;;;;;;;5004308;28;20398;-88
2021/03/09 09:19:59;;;;;;;18.33;14.27;;;;;;;;;;5018860;28;20770;-91
2021/03/09 09:22:28;;;;;;;15.55;13.85;;;;;;;;;;5023931;28;20412;-88
2021/03/09 09:25:02;;;;;;;16.90;13.85;;;;;;;;;;5026843;28;20430;-88
2021/03/09 09:27:28;;;;;;;16.80;12.88;;;;;;;;;;4999148;28;20734;-88
2021/03/09 09:29:57;;;;;;;19.60;14.07;;;;;;;;;;5018770;28;20419;-89
2021/03/09 09:32:24;;;;;;;21.10;13.40;;;;;;;;;;4996824;28;20894;-90
2021/03/09 09:34:59;;;;;;;17.57;14.40;;;;;;;;;;4997408;28;20425;-89
2021/03/09 09:37:32;;;;;;;19.58;14.45;;;;;;;;;;4999479;28;20422;-90
2021/03/09 09:40:17;;;;;;;15.32;13.63;;;;;;;;;;5015452;28;20408;-89
2021/03/09 09:42:56;;;;;;;16.33;13.63;;;;;;;;;;4998283;28;20504;-89
2021/03/09 09:45:30;;;;;;;15.80;13.33;;;;;;;;;;5017024;28;20398;-90
2021/03/09 09:47:56;;;;;;;14.82;12.43;;;;;;;;;;5000003;28;20415;-90
2021/03/09 09:50:25;;;;;;;17.58;13.52;;;;;;;;;;5014670;28;20401;-89
2021/03/09 09:53:12;;;;;;;16.23;13.40;;;;;;;;;;5012241;28;20423;-89
2021/03/09 09:55:38;;;;;;;15.15;12.77;;;;;;;;;;5001878;28;20508;-89
2021/03/09 09:58:04;;;;;;;17.73;13.55;;;;;;;;;;5010112;28;20419;-89
2021/03/09 10:00:33;;;;;;;18.23;13.07;;;;;;;;;;5000167;28;20485;-93
2021/03/09 10:03:08;;;;;;;17.75;14.10;;;;;;;;;;5000146;28;20500;-92
2021/03/09 10:05:34;;;;;;;18.42;13.43;;;;;;;;;;5011660;28;20888;-90
2021/03/09 10:08:00;;;;;;;15.80;13.55;;;;;;;;;;5032582;28;20440;-91
2021/03/09 10:10:26;;;;;;;18.90;14.23;;;;;;;;;;5011559;28;20434;-90
2021/03/09 10:13:00;;;;;;;18.80;13.50;;;;;;;;;;5002415;28;20425;-89
2021/03/09 10:15:50;;;;;;;16.47;13.80;;;;;;;;;;5000750;28;22168;-90
2021/03/09 10:18:26;;;;;;;16.77;12.82;;;;;;;;;;5018883;28;20418;-91
2021/03/09 10:21:05;;;;;;;16.50;12.90;;;;;;;;;;5006950;28;20404;-89
2021/03/09 10:23:31;;;;;;;13.98;12.27;;;;;;;;;;5020143;28;20417;-91
2021/03/09 10:26:04;;;;;;;14.05;12.57;;;;;;;;;;4997215;28;20449;-89
2021/03/09 10:28:31;;;;;;;16.75;13.70;;;;;;;;;;4994873;28;20746;-90
2021/03/09 10:31:16;;;;;;;16.63;13.30;;;;;;;;;;4990747;28;20417;-90
2021/03/09 10:42:58;;;;;;;16.10;13.68;;;;;;;;;;5006231;28;20998;-89
2021/03/09 10:45:28;;;;;;;17.88;14.10;;;;;;;;;;4991132;28;20423;-90
2021/03/09 10:48:01;;;;;;;16.98;14.13;;;;;;;;;;4967858;28;20405;-89
2021/03/09 10:50:39;;;;;;;23.15;15.15;;;;;;;;;;4976289;28;20435;-90
2021/03/09 10:53:05;;;;;;;25.55;16.45;;;;;;;;;;4979140;28;20513;-90
2021/03/09 10:55:38;;;;;;;19.25;14.10;;;;;;;;;;4967588;28;20445;-90
2021/03/09 10:58:05;;;;;;;18.33;14.45;;;;;;;;;;4978228;28;20422;-89
2021/03/09 11:00:34;;;;;;;18.42;14.57;;;;;;;;;;4974425;28;20496;-90
2021/03/09 11:03:00;;;;;;;15.20;13.60;;;;;;;;;;4974574;28;20456;-90
2021/03/09 11:05:26;;;;;;;15.40;13.60;;;;;;;;;;4977314;28;20439;-88
2021/03/09 11:07:52;;;;;;;18.10;13.10;;;;;;;;;;4996338;28;20412;-91
2021/03/09 11:10:29;;;;;;;16.45;13.48;;;;;;;;;;5005711;28;20416;-91
2021/03/09 11:12:58;;;;;;;16.73;12.65;;;;;;;;;;4993878;28;20419;-93
2021/03/09 11:15:31;;;;;;;16.42;13.05;;;;;;;;;;5016041;28;20421;-89
2021/03/09 11:18:00;;;;;;;15.55;13.85;;;;;;;;;;5018094;28;20912;-90
2021/03/09 11:20:26;;;;;;;14.60;13.10;;;;;;;;;;4995106;28;20933;-90
2021/03/09 11:22:52;;;;;;;15.68;13.15;;;;;;;;;;5017418;28;20413;-90
2021/03/09 11:25:18;;;;;;;16.33;12.93;;;;;;;;;;5010683;28;20407;-91
2021/03/09 11:27:44;;;;;;;17.15;13.57;;;;;;;;;;4999102;28;20964;-90
2021/03/09 11:30:29;;;;;;;17.42;14.18;;;;;;;;;;5028868;28;20494;-90
2021/03/09 11:32:55;;;;;;;16.20;14.13;;;;;;;;;;5006410;28;20428;-90
2021/03/09 11:35:21;;;;;;;15.27;13.65;;;;;;;;;;5029995;28;20497;-89
2021/03/09 11:37:47;;;;;;;14.23;12.73;;;;;;;;;;5011479;28;20427;-88
2021/03/09 11:40:16;;;;;;;16.53;11.80;;;;;;;;;;5015233;28;20403;-90
2021/03/09 11:42:42;;;;;;;14.70;12.32;;;;;;;;;;5015079;28;20427;-90
2021/03/09 11:45:11;;;;;;;14.30;12.80;;;;;;;;;;5014045;28;20424;-89
2021/03/09 11:47:37;;;;;;;13.05;11.55;;;;;;;;;;5014204;28;20467;-91
2021/03/09 11:50:06;;;;;;;13.52;11.68;;;;;;;;;;4997919;28;20477;-90
2021/03/09 11:55:30;;;;;;;14.20;12.10;;;;;;;;;;5017835;28;20621;-92
2021/03/09 11:58:01;;;;;;;14.63;12.05;;;;;;;;;;4998243;28;20557;-95
2021/03/09 12:00:28;;;;;;;13.68;11.98;;;;;;;;;;5013476;28;20482;-90
2021/03/09 12:02:54;;;;;;;17.65;11.82;;;;;;;;;;5010025;28;20428;-90
2021/03/09 12:05:43;;;;;;;12.63;11.27;;;;;;;;;;4995396;28;20492;-90
2021/03/09 12:08:09;;;;;;;14.23;11.23;;;;;;;;;;5015585;28;20573;-90
2021/03/09 12:10:35;;;;;;;11.68;10.25;;;;;;;;;;4995142;28;20403;-91
2021/03/09 12:13:01;;;;;;;11.50;10.40;;;;;;;;;;5018287;28;20400;-91
2021/03/09 12:15:30;;;;;;;11.73;10.50;;;;;;;;;;5001811;28;20758;-90
2021/03/09 12:18:06;;;;;;;12.45;10.45;;;;;;;;;;5016958;28;20414;-91
2021/03/09 12:20:42;;;;;;;12.00;10.70;;;;;;;;;;5001367;28;20481;-90
2021/03/09 12:23:24;;;;;;;12.73;10.38;;;;;;;;;;4998424;28;20427;-90
2021/03/09 12:26:00;;;;;;;11.80;10.60;;;;;;;;;;5018185;28;20400;-91
2021/03/09 12:28:31;;;;;;;12.18;10.93;;;;;;;;;;4996262;28;20415;-93
2021/03/09 12:30:57;;;;;;;13.30;10.20;;;;;;;;;;5005844;28;20395;-88
2021/03/09 12:33:26;;;;;;;11.48;10.02;;;;;;;;;;4992979;28;20416;-89
2021/03/09 12:35:57;;;;;;;11.50;10.40;;;;;;;;;;5020030;28;20434;-89
2021/03/09 12:38:23;;;;;;;11.60;10.10;;;;;;;;;;5008877;28;20409;-94
2021/03/09 12:40:49;;;;;;;11.05;10.00;;;;;;;;;;4998587;28;20489;-89
2021/03/09 12:43:18;;;;;;;11.55;10.38;;;;;;;;;;5000357;28;20763;-89
2021/03/09 12:45:44;;;;;;;11.50;10.05;;;;;;;;;;4985898;28;20405;-88
2021/03/09 12:48:13;;;;;;;18.05;10.40;;;;;;;;;;4992545;28;20420;-89
2021/03/09 12:50:42;;;;;;;17.23;10.60;;;;;;;;;;4989262;28;20409;-88
2021/03/09 12:53:10;;;;;;;12.07;9.73;;;;;;;;;;5003731;28;20498;-89
2021/03/09 12:55:38;;;;;;;9.83;8.93;;;;;;;;;;4990006;28;20394;-89
2021/03/09 12:58:34;;;;;;;10.90;9.23;;;;;;;;;;5022605;28;20428;-90
2021/03/09 13:01:32;;;;;;;10.43;9.43;;;;;;;;;;5005451;28;20478;-88
2021/03/09 13:04:27;;;;;;;10.32;9.25;;;;;;;;;;4991640;28;20510;-89
2021/03/09 13:06:53;;;;;;;9.35;8.55;;;;;;;;;;4999316;28;20391;-89
2021/03/09 13:09:22;;;;;;;12.43;9.57;;;;;;;;;;4985052;28;20415;-88
2021/03/09 13:11:47;;;;;;;10.20;9.30;;;;;;;;;;4980146;28;20421;-90
2021/03/09 13:14:16;;;;;;;11.57;9.87;;;;;;;;;;5003303;28;20399;-89
2021/03/09 13:17:15;;;;;;;9.47;8.57;;;;;;;;;;5000555;28;20408;-90
2021/03/09 13:22:43;;;;;;;10.98;9.88;;;;;;;;;;5010963;28;20411;-90
2021/03/09 13:25:12;;;;;;;10.57;9.47;;;;;;;;;;4988333;28;20446;-91
2021/03/09 13:27:38;;;;;;;10.95;9.80;;;;;;;;;;4984935;28;20399;-90
2021/03/09 13:30:08;;;;;;;11.88;9.90;;;;;;;;;;5008757;28;20412;-89
2021/03/09 13:32:34;;;;;;;11.15;10.07;;;;;;;;;;4994788;28;20417;-90
2021/03/09 13:35:09;;;;;;;10.30;9.30;;;;;;;;;;5010793;28;20393;-90
2021/03/09 13:37:47;;;;;;;11.27;10.18;;;;;;;;;;5010085;28;20405;-90
2021/03/09 13:40:42;;;;;;;11.48;10.02;;;;;;;;;;4994706;28;20497;-90
2021/03/09 13:43:11;;;;;;;10.85;9.77;;;;;;;;;;5011395;28;20448;-89
2021/03/09 13:45:37;;;;;;;12.23;10.98;;;;;;;;;;4998854;28;20397;-90
2021/03/09 13:51:18;;;;;;;11.27;10.18;;;;;;;;;;5003803;28;20725;-89
2021/03/09 13:53:47;;;;;;;10.63;9.63;;;;;;;;;;5000914;28;20438;-89
2021/03/09 13:56:19;;;;;;;9.90;9.00;;;;;;;;;;4992106;28;20741;-89
2021/03/09 13:59:03;;;;;;;10.65;9.55;;;;;;;;;;4998256;28;21128;-89
2021/03/09 14:01:38;;;;;;;10.77;9.77;;;;;;;;;;4988057;28;20412;-91
2021/03/09 14:04:05;;;;;;;11.90;10.50;;;;;;;;;;4990316;28;20815;-89
2021/03/09 14:06:34;;;;;;;11.15;9.93;;;;;;;;;;4990921;28;20497;-92
2021/03/09 14:09:00;;;;;;;13.38;11.88;;;;;;;;;;5015275;28;20412;-93
2021/03/09 14:11:26;;;;;;;15.07;11.10;;;;;;;;;;4985612;28;20412;-89
2021/03/09 14:13:52;;;;;;;11.88;10.68;;;;;;;;;;4989797;28;20733;-90
2021/03/09 14:16:21;;;;;;;11.48;10.38;;;;;;;;;;4991194;28;20402;-89
2021/03/09 14:18:47;;;;;;;12.27;10.47;;;;;;;;;;5018557;28;20430;-89
2021/03/09 14:21:18;;;;;;;12.18;9.73;;;;;;;;;;4994990;28;20915;-91
2021/03/09 14:23:47;;;;;;;10.45;9.35;;;;;;;;;;4999413;28;20421;-89
2021/03/09 14:26:13;;;;;;;10.35;9.38;;;;;;;;;;4988466;28;20439;-89
2021/03/09 14:28:39;;;;;;;11.98;10.68;;;;;;;;;;5014300;28;20406;-90
2021/03/09 14:31:05;;;;;;;10.95;9.82;;;;;;;;;;4989481;28;20413;-89
2021/03/09 14:33:31;;;;;;;11.43;10.23;;;;;;;;;;4993216;28;20437;-90
2021/03/09 14:35:57;;;;;;;14.38;10.32;;;;;;;;;;5008962;28;20417;-90
2021/03/09 14:38:23;;;;;;;15.82;11.20;;;;;;;;;;4990800;28;20750;-90
2021/03/09 14:40:49;;;;;;;11.43;10.25;;;;;;;;;;5002561;28;20416;-93
2021/03/09 14:43:16;;;;;;;11.20;9.17;;;;;;;;;;4988320;28;20646;-90
2021/03/09 14:45:57;;;;;;;11.38;10.02;;;;;;;;;;4993002;28;20772;-90
2021/03/09 14:48:30;;;;;;;11.77;10.68;;;;;;;;;;4989715;28;20410;-89
2021/03/09 14:51:01;;;;;;;14.15;12.07;;;;;;;;;;5009721;28;20496;-91
2021/03/09 14:53:27;;;;;;;12.45;10.63;;;;;;;;;;4998292;28;20443;-92
2021/03/09 14:55:53;;;;;;;13.23;11.82;;;;;;;;;;4994774;28;20406;-91
2021/03/09 14:58:21;;;;;;;12.90;11.50;;;;;;;;;;5011752;28;20429;-90
2021/03/09 15:00:47;;;;;;;14.00;10.87;;;;;;;;;;5019599;28;20772;-95
2021/03/09 15:03:24;;;;;;;12.60;11.30;;;;;;;;;;4998146;28;20816;-93
2021/03/09 15:05:50;;;;;;;13.43;11.53;;;;;;;;;;4998398;28;20408;-87
2021/03/09 15:08:22;;;;;;;11.50;10.40;;;;;;;;;;5013476;28;20768;-90